Terminal Aerodrome Forecast
Issued by NWS Sioux Falls, SD

Home | Current Version | Previous Version | Graphics & Text | Print | Product List | Glossary On
Versions: 1 2 3 4 5 6 7 8 9 10 11 12 13 14 15 16 17 18 19 20 21 22
000
FTUS43 KFSD 220520
TAFFSD
TAF
KFSD 220520Z 2206/2306 08006KT P6SM SCT100 BKN200
     FM220900 11008KT P6SM BKN100
     FM221500 15013KT P6SM -SN OVC028
     FM221800 15015G24KT P6SM OVC050
     FM222100 15018KT P6SM BKN080=

USA.gov is the U.S. government's official web portal to all federal, state and local government web resources and services.